Chewsville, Maryland
Current Conditions -  °F | °C
As of 3:53 AM on Monday 20 Oct 2014 (Local Time) from KHGR Reporting Station
Clear Clear  
Wind Chill: 40°   Ceiling: Unl
Heat Index: 40°   Visibility: 10mi
Dew Point: 34°   Wind: 3mph
Humidity: 79%   Direction: 70°ENE
Pressure: 30.08"   Gusts: NA
Location:  39.64°N, 77.64°W
Report Text: KHGR 200753Z AUTO 07003KT 10SM CLR 04/01 A3008 RMK AO2 SLP197 T00440011
Loading
Personal Weather Stations






























Interactive Weather Map
Tropical Storm Tracking
New forecast layout! Learn more

10-Day Weather Forecast

Advertisements
Track Severe Weather on mobile